Time;durP1;ratioP1;P1;durP2;ratioP2;P2;SDS_P1;SDS_P2;PMS_P1;PMS_P2;Temp;Humidity;BMP_temperature;BMP_pressure;BME280_temperature;BME280_humidity;BME280_pressure;Samples;Min_cycle;Max_cycle;Signal;HPM_P1;HPM_P2
2022/12/22 03:26:16;;;;;;;9.48;8.50;;;;;;;9.72;87.26;100115.44;5089733;28;20047;-58
2022/12/22 03:28:41;;;;;;;7.18;6.57;;;;;;;9.74;87.27;100120.72;5091008;28;20031;-58
2022/12/22 03:31:06;;;;;;;9.63;8.73;;;;;;;9.73;87.06;100119.06;5093008;28;20042;-58
2022/12/22 03:33:32;;;;;;;8.73;7.93;;;;;;;9.72;87.09;100114.63;5090937;28;20055;-58
2022/12/22 03:35:58;;;;;;;9.38;8.48;;;;;;;9.71;87.06;100104.66;5091003;28;20368;-58
2022/12/22 03:38:24;;;;;;;8.43;7.63;;;;;;;9.71;87.00;100107.41;5092534;28;20383;-58
2022/12/22 03:40:49;;;;;;;8.82;8.05;;;;;;;9.70;87.01;100108.50;5085481;28;20039;-58
2022/12/22 03:48:41;;;;;;;7.30;6.63;;;;;;;9.67;86.97;100096.03;5093251;28;20074;-58
2022/12/22 03:51:06;;;;;;;7.85;7.15;;;;;;;9.68;86.88;100096.84;5090660;28;20512;-58
2022/12/22 03:53:32;;;;;;;7.45;6.85;;;;;;;9.69;86.97;100092.97;5089637;28;20024;-58
2022/12/22 03:55:57;;;;;;;8.25;7.55;;;;;;;9.67;86.88;100093.25;5088305;28;20035;-58
2022/12/22 03:58:22;;;;;;;8.23;7.53;;;;;;;9.67;86.29;100089.63;5085173;28;20032;-58
2022/12/22 04:00:48;;;;;;;9.18;8.27;;;;;;;9.67;86.53;100086.84;5089821;28;20032;-58
2022/12/22 04:03:13;;;;;;;8.10;7.43;;;;;;;9.64;86.37;100082.69;5090513;28;20028;-58
2022/12/22 04:05:39;;;;;;;9.07;8.27;;;;;;;9.65;86.59;100083.53;5091432;28;20032;-58
2022/12/22 04:08:04;;;;;;;8.00;7.38;;;;;;;9.65;86.35;100086.31;5090018;28;20365;-58
2022/12/22 04:13:14;;;;;;;10.27;9.38;;;;;;;9.66;86.76;100077.72;5091447;28;20051;-58
2022/12/22 04:15:39;;;;;;;9.38;8.40;;;;;;;9.65;86.44;100083.53;5083725;28;20391;-58
2022/12/22 04:18:04;;;;;;;10.40;9.40;;;;;;;9.65;86.66;100080.75;5090552;28;20383;-58
2022/12/22 04:20:29;;;;;;;11.15;10.05;;;;;;;9.63;86.26;100081.03;5090504;28;20463;-58
2022/12/22 04:22:56;;;;;;;9.93;9.02;;;;;;;9.62;86.86;100081.28;5088653;28;20049;-58
2022/12/22 04:25:22;;;;;;;10.65;9.60;;;;;;;9.61;86.65;100079.63;5088986;28;20024;-58
2022/12/22 04:27:47;;;;;;;9.13;8.32;;;;;;;9.62;86.67;100075.75;5090013;28;20043;-58
2022/12/22 04:30:13;;;;;;;9.55;8.70;;;;;;;9.61;86.55;100079.63;5088223;28;20024;-59
2022/12/22 04:32:39;;;;;;;9.70;8.80;;;;;;;9.62;86.74;100089.59;5086648;28;20043;-59
2022/12/22 04:35:05;;;;;;;8.60;7.80;;;;;;;9.64;86.45;100096.56;5089394;28;20036;-59
2022/12/22 04:37:30;;;;;;;8.68;7.80;;;;;;;9.61;86.54;100085.16;5090446;28;20051;-58
2022/12/22 04:39:56;;;;;;;9.55;8.60;;;;;;;9.63;86.48;100094.88;5091087;28;20172;-58
2022/12/22 04:42:21;;;;;;;10.30;9.30;;;;;;;9.63;86.94;100097.66;5089245;28;20047;-59
2022/12/22 04:44:46;;;;;;;11.05;9.95;;;;;;;9.63;86.50;100100.44;5091252;28;20046;-58
2022/12/22 04:47:12;;;;;;;12.18;10.88;;;;;;;9.66;86.81;100099.03;5084408;28;20031;-59
2022/12/22 04:49:37;;;;;;;11.90;10.70;;;;;;;9.66;86.75;100104.59;5090178;28;20031;-59
2022/12/22 04:52:03;;;;;;;12.30;11.13;;;;;;;9.66;86.99;100105.41;5088161;28;20028;-59
2022/12/22 04:54:28;;;;;;;12.48;11.27;;;;;;;9.67;86.79;100100.69;5090639;28;20044;-58
2022/12/22 04:56:53;;;;;;;12.93;11.63;;;;;;;9.68;87.17;100096.84;5088461;28;20110;-58
2022/12/22 04:59:18;;;;;;;12.18;11.00;;;;;;;9.66;86.91;100094.34;5091596;28;20063;-58
2022/12/22 05:01:50;;;;;;;11.73;10.63;;;;;;;9.67;86.95;100089.63;5089513;28;20498;-58
2022/12/22 05:04:16;;;;;;;11.43;10.32;;;;;;;9.68;86.77;100085.78;5079404;28;20039;-59
2022/12/22 05:06:47;;;;;;;13.70;11.80;;;;;;;9.65;86.93;100078.81;5090346;28;20024;-58
2022/12/22 05:09:12;;;;;;;12.18;10.98;;;;;;;9.66;86.75;100079.66;5087908;28;20069;-58
2022/12/22 05:11:37;;;;;;;12.48;11.27;;;;;;;9.67;86.93;100089.63;5090331;28;20023;-59
2022/12/22 05:14:03;;;;;;;11.65;10.52;;;;;;;9.66;86.75;100083.25;5087304;28;20437;-59
2022/12/22 05:16:28;;;;;;;12.52;11.32;;;;;;;9.66;86.49;100090.72;5090519;28;20027;-58
2022/12/22 05:18:54;;;;;;;12.32;11.13;;;;;;;9.66;86.43;100088.78;5088394;28;20032;-58
2022/12/22 05:21:21;;;;;;;12.27;11.07;;;;;;;9.65;86.83;100092.66;5087393;28;20047;-58
2022/12/22 05:23:47;;;;;;;13.65;12.25;;;;;;;9.66;86.69;100093.50;5087719;28;20024;-58
2022/12/22 05:26:15;;;;;;;13.73;12.13;;;;;;;9.65;86.44;100102.91;5087544;28;20039;-58
2022/12/22 05:28:42;;;;;;;12.70;11.40;;;;;;;9.67;86.58;100109.88;5090164;28;20585;-58
2022/12/22 05:31:13;;;;;;;13.63;11.90;;;;;;;9.67;86.45;100106.25;5078353;28;20093;-59
2022/12/22 05:33:38;;;;;;;12.80;11.38;;;;;;;9.67;86.34;100106.25;5076683;28;20028;-58
2022/12/22 05:36:04;;;;;;;13.50;12.07;;;;;;;9.66;86.30;100102.66;5086036;28;20482;-58
2022/12/22 05:38:30;;;;;;;13.50;12.15;;;;;;;9.66;86.65;100110.97;5088066;28;20036;-58
2022/12/22 05:40:55;;;;;;;13.02;11.05;;;;;;;9.67;86.32;100109.88;5090768;28;20790;-59
2022/12/22 05:43:20;;;;;;;11.20;10.10;;;;;;;9.68;86.31;100119.03;5088561;28;20113;-58
2022/12/22 05:45:46;;;;;;;11.48;10.27;;;;;;;9.66;86.55;100116.50;5087694;28;20047;-58
2022/12/22 05:48:12;;;;;;;11.38;10.18;;;;;;;9.67;86.46;100117.31;5089229;28;20043;-58
2022/12/22 05:50:38;;;;;;;10.43;9.43;;;;;;;9.66;86.49;100118.44;5084613;28;20054;-59
2022/12/22 05:53:05;;;;;;;11.23;10.02;;;;;;;9.65;86.77;100122.31;5074936;28;20473;-59
2022/12/22 05:55:30;;;;;;;9.90;9.00;;;;;;;9.67;86.90;100126.50;5084858;28;20020;-58
2022/12/22 05:57:55;;;;;;;9.50;8.60;;;;;;;9.68;86.91;100132.88;5090140;28;20460;-58
2022/12/22 06:00:23;;;;;;;9.73;8.73;;;;;;;9.69;87.03;100151.16;5087136;28;20028;-59
2022/12/22 06:02:48;;;;;;;9.65;8.68;;;;;;;9.69;86.67;100151.16;5080706;28;20028;-58
2022/12/22 06:05:14;;;;;;;10.30;9.30;;;;;;;9.69;87.14;100160.31;5089757;28;20119;-59
2022/12/22 06:07:40;;;;;;;9.95;8.82;;;;;;;9.67;86.90;100162.53;5084386;28;20035;-59
2022/12/22 06:10:07;;;;;;;11.13;10.02;;;;;;;9.70;86.79;100167.53;5087072;28;20754;-59
2022/12/22 06:12:32;;;;;;;10.23;9.20;;;;;;;9.71;86.76;100171.16;5088976;28;20122;-59
2022/12/22 06:14:57;;;;;;;10.82;9.73;;;;;;;9.70;86.98;100167.53;5086909;28;20107;-59
2022/12/22 06:17:23;;;;;;;10.27;9.27;;;;;;;9.72;87.12;100175.59;5081036;28;20056;-58
2022/12/22 06:19:48;;;;;;;11.80;10.57;;;;;;;9.70;87.00;100178.59;5081982;28;20101;-58
2022/12/22 06:22:13;;;;;;;11.80;10.60;;;;;;;9.73;87.30;100180.03;5083177;28;20070;-59
2022/12/22 06:24:39;;;;;;;12.23;10.93;;;;;;;9.73;87.15;100182.78;5076108;28;20029;-58
2022/12/22 06:27:04;;;;;;;11.95;10.70;;;;;;;9.74;87.13;100190.81;5080218;28;20032;-58
2022/12/22 06:29:29;;;;;;;13.82;12.43;;;;;;;9.76;87.10;100194.19;5086559;28;20103;-59
2022/12/22 06:31:54;;;;;;;14.38;12.60;;;;;;;9.76;87.07;100202.50;5081951;28;20024;-59
2022/12/22 06:34:20;;;;;;;14.93;13.32;;;;;;;9.77;86.90;100203.34;5085558;28;20036;-58
2022/12/22 06:36:46;;;;;;;17.55;14.32;;;;;;;9.77;87.17;100209.72;5085248;28;20060;-60
2022/12/22 06:39:16;;;;;;;22.23;17.00;;;;;;;9.75;87.43;100220.25;5084583;28;20024;-57
2022/12/22 06:44:26;;;;;;;24.00;18.80;;;;;;;9.74;87.53;100215.78;5087945;28;20114;-57
2022/12/22 06:46:51;;;;;;;26.77;20.30;;;;;;;9.71;87.44;100221.03;5086118;28;20521;-58
2022/12/22 06:49:17;;;;;;;26.00;19.35;;;;;;;9.73;87.45;100227.13;5084444;28;20119;-58
2022/12/22 06:51:42;;;;;;;28.55;20.27;;;;;;;9.73;87.34;100227.13;5085952;28;20040;-58
2022/12/22 06:54:08;;;;;;;33.05;21.42;;;;;;;9.73;87.52;100233.50;5079785;28;20032;-59
2022/12/22 06:56:33;;;;;;;30.77;20.63;;;;;;;9.71;87.36;100241.25;5084848;28;20114;-58
2022/12/22 06:58:58;;;;;;;30.92;21.58;;;;;;;9.70;87.82;100244.28;5074463;28;20476;-58
2022/12/22 07:01:24;;;;;;;28.75;20.25;;;;;;;9.67;87.76;100244.78;5086108;28;20822;-59
2022/12/22 07:03:49;;;;;;;32.47;22.08;;;;;;;9.69;87.59;100254.53;5081500;28;20039;-58
2022/12/22 07:06:17;;;;;;;30.95;21.52;;;;;;;9.72;87.41;100264.25;5085439;28;20027;-57
2022/12/22 07:08:43;;;;;;;32.35;20.77;;;;;;;9.70;87.74;100275.59;5083489;28;20023;-57
2022/12/22 07:11:08;;;;;;;31.70;19.90;;;;;;;9.72;87.65;100276.19;5080905;28;20036;-58
2022/12/22 07:13:34;;;;;;;30.80;21.42;;;;;;;9.73;87.45;100282.56;5073982;28;20085;-58
2022/12/22 07:16:01;;;;;;;30.70;21.05;;;;;;;9.73;87.15;100288.94;5081193;28;20044;-58
2022/12/22 07:18:31;;;;;;;33.40;21.27;;;;;;;9.72;86.95;100297.53;5079660;28;20084;-58
2022/12/22 07:20:58;;;;;;;30.95;20.90;;;;;;;9.72;86.88;100287.28;5080890;28;20497;-59
2022/12/22 07:23:25;;;;;;;29.33;21.05;;;;;;;9.73;86.71;100282.56;5087861;28;20035;-59
2022/12/22 07:25:50;;;;;;;30.52;20.98;;;;;;;9.72;86.63;100286.44;5083559;28;20020;-59
2022/12/22 07:28:16;;;;;;;30.92;20.88;;;;;;;9.71;86.56;100287.53;5083970;28;20040;-59
2022/12/22 07:30:41;;;;;;;32.22;21.17;;;;;;;9.71;86.45;100284.78;5077787;28;20039;-60
2022/12/22 07:33:07;;;;;;;31.80;21.17;;;;;;;9.71;86.34;100290.31;5076065;28;20020;-59
2022/12/22 07:35:32;;;;;;;31.73;21.98;;;;;;;9.69;86.26;100276.69;5068256;28;21077;-59
2022/12/22 07:37:57;;;;;;;31.67;21.98;;;;;;;9.69;85.94;100284.19;5085796;28;20028;-60
2022/12/22 07:40:22;;;;;;;33.15;22.80;;;;;;;9.69;85.79;100293.31;5086375;28;20036;-60
2022/12/22 07:42:48;;;;;;;36.67;22.52;;;;;;;9.69;86.04;100300.81;5078107;28;20963;-60
2022/12/22 07:45:15;;;;;;;32.88;22.17;;;;;;;9.67;85.88;100305.75;5083703;28;20355;-68
2022/12/22 07:47:41;;;;;;;34.70;21.35;;;;;;;9.65;85.88;100308.81;5087203;28;20024;-61
2022/12/22 07:50:26;;;;;;;34.58;23.33;;;;;;;9.67;85.80;100314.06;5089019;28;20035;-60
2022/12/22 07:52:57;;;;;;;36.47;22.77;;;;;;;9.66;85.64;100327.09;5084729;28;20024;-61
2022/12/22 07:55:24;;;;;;;36.90;23.52;;;;;;;9.67;85.48;100327.94;5086301;28;20380;-61
2022/12/22 07:57:50;;;;;;;39.67;25.80;;;;;;;9.69;85.15;100336.84;5090285;28;20110;-61
2022/12/22 08:00:16;;;;;;;38.25;24.55;;;;;;;9.70;85.28;100353.19;5078851;28;21739;-60
2022/12/22 08:02:41;;;;;;;37.70;25.02;;;;;;;9.67;85.32;100373.13;5085122;28;20036;-60
2022/12/22 08:05:08;;;;;;;38.58;24.40;;;;;;;9.68;85.46;100373.97;5088485;28;20428;-61
2022/12/22 08:07:33;;;;;;;38.03;24.77;;;;;;;9.69;85.35;100370.91;5085976;28;20036;-61
2022/12/22 08:09:58;;;;;;;39.17;25.33;;;;;;;9.69;85.55;100387.53;5085912;28;20085;-70
2022/12/22 08:12:24;;;;;;;39.08;24.98;;;;;;;9.62;85.06;100392.44;5083185;28;20040;-62
2022/12/22 08:14:49;;;;;;;43.72;25.42;;;;;;;9.64;85.17;100395.81;5077536;28;20550;-61
2022/12/22 08:17:14;;;;;;;39.55;24.38;;;;;;;9.66;84.93;100398.31;5087593;28;20028;-62
2022/12/22 08:19:40;;;;;;;41.15;24.63;;;;;;;9.68;84.67;100398.91;5089020;28;20562;-61
2022/12/22 08:22:05;;;;;;;39.83;24.40;;;;;;;9.68;84.55;100396.13;5089417;28;20051;-62
2022/12/22 08:24:30;;;;;;;39.92;23.42;;;;;;;9.66;84.50;100404.69;5090750;28;20089;-61
2022/12/22 08:27:04;;;;;;;43.55;25.42;;;;;;;9.67;84.66;100399.97;5089283;28;20085;-62
2022/12/22 08:29:37;;;;;;;41.13;24.60;;;;;;;9.69;84.58;100400.56;5091252;28;20115;-61
2022/12/22 08:32:05;;;;;;;43.58;25.52;;;;;;;9.68;84.49;100402.50;5076702;28;20024;-61
2022/12/22 08:34:31;;;;;;;41.40;23.83;;;;;;;9.70;84.55;100418.88;5072207;28;20040;-62
2022/12/22 08:36:59;;;;;;;44.47;25.65;;;;;;;9.70;84.19;100421.63;5081352;28;20101;-62
2022/12/22 08:39:27;;;;;;;44.08;24.40;;;;;;;9.69;84.02;100434.66;5072168;28;20132;-62
2022/12/22 08:41:53;;;;;;;43.33;26.17;;;;;;;9.67;83.94;100445.19;5077719;28;20103;-62
2022/12/22 08:44:27;;;;;;;50.13;27.05;;;;;;;9.68;83.66;100454.31;5086629;28;20023;-62
2022/12/22 08:46:54;;;;;;;42.92;25.27;;;;;;;9.69;83.73;100467.09;5078227;28;20529;-61
2022/12/22 08:49:21;;;;;;;40.13;24.35;;;;;;;9.68;83.82;100466.25;5084925;28;20464;-61
2022/12/22 08:51:47;;;;;;;41.10;24.17;;;;;;;9.71;83.67;100484.31;5087156;28;20032;-62
2022/12/22 08:54:13;;;;;;;38.17;23.52;;;;;;;9.73;83.45;100490.41;5085605;28;20121;-63
2022/12/22 08:56:38;;;;;;;40.65;23.05;;;;;;;9.74;83.24;100498.47;5083869;28;20028;-62
2022/12/22 08:59:06;;;;;;;38.33;23.67;;;;;;;9.70;83.07;100486.22;5085981;28;20089;-61
2022/12/22 09:01:34;;;;;;;42.10;24.88;;;;;;;9.65;83.06;100488.09;5083702;28;20032;-61
2022/12/22 09:03:59;;;;;;;41.88;25.63;;;;;;;9.61;83.12;100489.69;5088238;28;20064;-61
2022/12/22 09:06:25;;;;;;;41.92;27.23;;;;;;;9.58;82.78;100497.41;5090515;28;20115;-60
2022/12/22 09:08:55;;;;;;;46.17;27.15;;;;;;;9.58;82.88;100507.66;5087903;28;20044;-61
2022/12/22 09:11:21;;;;;;;45.15;25.52;;;;;;;9.58;82.89;100502.13;5086519;28;20494;-60
2022/12/22 09:13:46;;;;;;;41.35;25.50;;;;;;;9.58;82.74;100493.81;5070052;28;20043;-59
2022/12/22 09:16:11;;;;;;;42.30;25.00;;;;;;;9.60;82.97;100499.94;5068705;28;20078;-60
2022/12/22 09:18:37;;;;;;;37.72;23.30;;;;;;;9.56;82.67;100496.84;5069574;28;20035;-60
2022/12/22 09:21:02;;;;;;;48.97;26.77;;;;;;;9.57;82.64;100501.28;5087735;28;20032;-60
2022/12/22 09:23:30;;;;;;;43.35;25.25;;;;;;;9.52;82.48;100509.53;5089776;28;20025;-60
2022/12/22 09:25:58;;;;;;;41.67;26.02;;;;;;;9.49;82.14;100509.19;5089000;28;20032;-60
2022/12/22 09:28:23;;;;;;;44.42;26.27;;;;;;;9.55;82.85;100516.50;5090659;28;20027;-60
2022/12/22 09:30:50;;;;;;;42.47;25.98;;;;;;;9.56;82.48;100519.00;5089160;28;20398;-60
2022/12/22 09:33:16;;;;;;;43.42;25.02;;;;;;;9.60;82.88;100519.34;5090312;28;20044;-60
2022/12/22 09:35:41;;;;;;;44.63;25.40;;;;;;;9.64;83.17;100519.66;5086042;28;20040;-60
2022/12/22 09:38:06;;;;;;;39.33;24.52;;;;;;;9.68;82.88;100524.44;5088585;28;20117;-60
2022/12/22 09:40:32;;;;;;;42.72;26.35;;;;;;;9.76;82.99;100532.31;5088929;28;20024;-60
2022/12/22 09:42:58;;;;;;;42.03;25.35;;;;;;;9.76;82.26;100537.03;5089612;28;20055;-59
2022/12/22 09:45:23;;;;;;;43.67;25.35;;;;;;;9.74;82.35;100536.44;5089440;28;20118;-60
2022/12/22 09:47:54;;;;;;;43.53;26.77;;;;;;;9.74;82.56;100545.56;5089416;28;20472;-59
2022/12/22 09:50:24;;;;;;;39.63;25.30;;;;;;;9.79;82.29;100547.59;5089988;28;20460;-60
2022/12/22 09:52:55;;;;;;;44.47;25.17;;;;;;;9.76;82.29;100548.94;5085258;28;20098;-60
2022/12/22 09:55:23;;;;;;;43.53;26.35;;;;;;;9.76;81.85;100545.34;5088201;28;20035;-60
2022/12/22 09:57:48;;;;;;;46.05;27.50;;;;;;;9.74;81.96;100547.50;5069425;28;20032;-59
2022/12/22 10:00:16;;;;;;;54.55;28.13;;;;;;;9.74;82.03;100544.75;5068838;28;20032;-59
2022/12/22 10:03:18;;;;;;;43.25;28.05;;;;;;;9.87;82.73;100549.09;5069529;28;20028;-60
2022/12/22 10:05:57;;;;;;;42.85;27.30;;;;;;;9.97;82.26;100561.16;5063200;28;20036;-59
2022/12/22 10:08:33;;;;;;;42.83;27.58;;;;;;;10.05;81.97;100566.25;5069563;28;20396;-60
2022/12/22 10:10:59;;;;;;;42.38;25.52;;;;;;;10.06;81.40;100572.63;5078011;28;20038;-59
2022/12/22 10:13:24;;;;;;;43.55;25.38;;;;;;;10.01;81.32;100565.09;5089117;28;20024;-60
2022/12/22 10:15:51;;;;;;;38.65;24.58;;;;;;;10.00;81.44;100582.81;5089370;28;20063;-60
2022/12/22 10:18:27;;;;;;;41.30;24.67;;;;;;;9.98;81.54;100585.03;5088968;28;20024;-60
2022/12/22 10:21:09;;;;;;;35.33;23.17;;;;;;;9.95;81.75;100574.44;5088476;28;20035;-60
2022/12/22 10:23:42;;;;;;;37.45;23.65;;;;;;;9.89;81.60;100572.69;5088704;28;20031;-60
2022/12/22 10:26:12;;;;;;;32.42;20.58;;;;;;;9.90;81.49;100573.53;5086159;28;20036;-60
2022/12/22 10:28:43;;;;;;;28.33;18.98;;;;;;;9.85;81.05;100568.75;5086403;28;20475;-60
2022/12/22 10:31:11;;;;;;;29.60;18.08;;;;;;;9.82;80.78;100575.66;5088162;28;20031;-59
2022/12/22 10:33:38;;;;;;;30.00;18.10;;;;;;;9.82;80.98;100580.34;5084998;28;20064;-60
2022/12/22 10:36:05;;;;;;;25.67;16.63;;;;;;;9.80;80.68;100577.84;5088978;28;20044;-60
2022/12/22 10:38:33;;;;;;;27.17;16.17;;;;;;;9.79;80.73;100590.03;5089472;28;20032;-59
2022/12/22 10:41:12;;;;;;;27.58;17.17;;;;;;;9.82;81.08;100591.41;5088061;28;20039;-60
2022/12/22 10:43:46;;;;;;;26.77;16.08;;;;;;;9.80;80.76;100583.38;5088332;28;20050;-60
2022/12/22 10:46:14;;;;;;;26.85;15.93;;;;;;;9.78;80.27;100584.72;5088944;28;20383;-60
2022/12/22 10:48:40;;;;;;;25.25;15.80;;;;;;;9.80;80.60;100583.38;5088771;28;20024;-60
2022/12/22 10:51:08;;;;;;;29.65;16.98;;;;;;;9.87;80.83;100576.81;5075348;28;20029;-60
2022/12/22 10:53:54;;;;;;;29.48;16.63;;;;;;;9.92;80.68;100586.03;5068679;28;20024;-59
2022/12/22 10:56:28;;;;;;;25.38;15.90;;;;;;;9.89;80.27;100592.09;5071046;28;20047;-59
2022/12/22 10:59:03;;;;;;;29.50;16.40;;;;;;;9.91;80.37;100598.22;5072509;28;20486;-59
2022/12/22 11:01:31;;;;;;;28.75;16.30;;;;;;;9.95;80.58;100598.56;5081857;28;20130;-61
2022/12/22 11:04:14;;;;;;;29.02;17.60;;;;;;;9.97;80.71;100602.75;5088752;28;20123;-60
2022/12/22 11:06:42;;;;;;;26.17;15.85;;;;;;;9.94;80.68;100599.63;5088828;28;20060;-61
2022/12/22 11:09:10;;;;;;;28.20;15.07;;;;;;;9.93;80.39;100598.81;5082366;28;20031;-61
2022/12/22 11:11:50;;;;;;;24.50;14.20;;;;;;;9.94;80.59;100607.94;5089477;28;20031;-61
2022/12/22 11:14:33;;;;;;;25.50;13.75;;;;;;;9.91;79.89;100614.88;5089741;28;20040;-61
2022/12/22 11:17:11;;;;;;;23.92;14.02;;;;;;;9.89;79.55;100608.72;5087426;28;20031;-61
2022/12/22 11:19:54;;;;;;;24.00;15.70;;;;;;;9.89;79.83;100600.41;5077276;28;20391;-63
2022/12/22 11:22:35;;;;;;;30.67;18.85;;;;;;;9.89;79.77;100605.94;5081836;28;20032;-62
2022/12/22 11:25:37;;;;;;;29.40;20.83;;;;;;;9.89;79.81;100603.19;5087104;28;20488;-61
2022/12/22 11:28:18;;;;;;;35.08;22.25;;;;;;;9.92;79.85;100604.63;5084914;28;20042;-62
2022/12/22 11:31:00;;;;;;;31.70;21.17;;;;;;;9.92;79.82;100610.16;5088751;28;20445;-63
2022/12/22 11:33:52;;;;;;;34.35;22.95;;;;;;;9.92;79.82;100613.75;5085454;28;20062;-62
2022/12/22 11:36:26;;;;;;;36.17;22.70;;;;;;;9.83;79.53;100616.13;5072066;28;20128;-61
2022/12/22 11:39:14;;;;;;;32.95;21.95;;;;;;;9.88;80.10;100617.31;5090073;28;20039;-62
2022/12/22 11:41:51;;;;;;;38.17;24.60;;;;;;;9.85;79.90;100615.88;5085824;28;20035;-60
2022/12/22 11:44:40;;;;;;;32.70;22.77;;;;;;;9.92;80.24;100619.31;5089726;28;20452;-59
2022/12/22 11:47:20;;;;;;;37.88;23.90;;;;;;;9.95;80.09;100626.28;5083278;28;20237;-60
2022/12/22 11:50:00;;;;;;;38.30;24.27;;;;;;;9.98;79.85;100623.84;5086525;28;20074;-60
2022/12/22 11:52:43;;;;;;;39.00;23.80;;;;;;;10.01;80.01;100628.03;5074489;28;20533;-61
2022/12/22 11:55:22;;;;;;;36.28;23.30;;;;;;;10.03;80.34;100626.69;5085405;28;20028;-61
2022/12/22 11:58:43;;;;;;;35.92;23.90;;;;;;;10.09;80.42;100622.88;5083351;28;20067;-61
2022/12/22 12:01:42;;;;;;;35.95;22.48;;;;;;;10.11;79.92;100622.63;4999399;28;20035;-61
2022/12/22 12:04:24;;;;;;;32.13;21.30;;;;;;;10.04;78.59;100610.88;4996508;28;20374;-61
2022/12/22 12:07:19;;;;;;;32.22;20.00;;;;;;;10.04;78.33;100610.88;5076075;28;20082;-61
2022/12/22 12:10:13;;;;;;;27.38;19.42;;;;;;;9.96;78.00;100606.63;5089183;28;20064;-61
2022/12/22 12:12:55;;;;;;;27.92;17.85;;;;;;;9.97;78.33;100602.75;5081072;28;20021;-61
2022/12/22 12:15:29;;;;;;;24.90;16.80;;;;;;;10.00;77.68;100596.69;5088006;28;20127;-61
2022/12/22 12:18:10;;;;;;;24.50;16.67;;;;;;;9.98;77.90;100592.47;5082814;28;20085;-60
2022/12/22 12:20:57;;;;;;;20.67;15.30;;;;;;;9.95;77.82;100585.53;5087548;28;20046;-60
2022/12/22 12:23:35;;;;;;;24.90;17.02;;;;;;;9.98;78.25;100587.81;5075514;28;20379;-60
2022/12/22 12:26:24;;;;;;;19.65;15.00;;;;;;;10.01;78.31;100575.34;5083247;28;20050;-60
2022/12/22 12:29:14;;;;;;;21.70;16.20;;;;;;;10.03;78.58;100575.94;5090740;28;20028;-60
2022/12/22 12:31:58;;;;;;;26.38;16.77;;;;;;;10.05;78.59;100573.72;5081743;28;20028;-58
2022/12/22 12:34:25;;;;;;;23.30;15.55;;;;;;;10.04;78.03;100566.53;5070482;28;20042;-59
2022/12/22 12:37:14;;;;;;;22.20;15.65;;;;;;;10.08;78.85;100579.59;5070435;28;20063;-59
2022/12/22 12:40:03;;;;;;;22.80;16.27;;;;;;;10.07;78.32;100566.00;5069318;28;20128;-59
2022/12/22 12:42:34;;;;;;;21.38;15.77;;;;;;;10.06;77.78;100561.53;5090606;28;20116;-59
2022/12/22 12:45:01;;;;;;;21.83;15.20;;;;;;;10.06;78.01;100573.50;5090228;28;20024;-59
2022/12/22 12:47:34;;;;;;;24.77;16.83;;;;;;;10.06;78.40;100576.28;5090345;28;20364;-59
2022/12/22 12:50:32;;;;;;;23.58;18.75;;;;;;;10.06;78.43;100570.72;5087468;28;20480;-60
2022/12/22 12:52:57;;;;;;;25.13;16.70;;;;;;;10.01;77.54;100567.84;5088491;28;20107;-60
2022/12/22 12:55:29;;;;;;;23.77;16.88;;;;;;;10.02;78.16;100561.25;5085242;28;21283;-60
2022/12/22 12:57:56;;;;;;;20.67;16.25;;;;;;;10.03;78.20;100570.41;5087134;28;20024;-59
2022/12/22 13:00:30;;;;;;;24.60;18.02;;;;;;;10.05;78.43;100554.31;5090789;28;20024;-58
2022/12/22 13:02:57;;;;;;;26.38;18.17;;;;;;;10.03;78.48;100559.31;5090432;28;20036;-60
2022/12/22 13:05:35;;;;;;;25.98;18.90;;;;;;;10.06;78.61;100567.09;5090569;28;20038;-59
2022/12/22 13:08:22;;;;;;;22.70;17.15;;;;;;;10.11;78.73;100560.78;5090349;28;20028;-59
2022/12/22 13:10:53;;;;;;;28.63;20.02;;;;;;;10.06;78.36;100562.41;5089622;28;20466;-59
2022/12/22 13:13:24;;;;;;;28.98;19.92;;;;;;;10.06;78.24;100559.63;5087162;28;20035;-59
2022/12/22 13:16:01;;;;;;;29.23;18.33;;;;;;;10.06;78.59;100562.41;5080687;28;20031;-59
2022/12/22 13:18:33;;;;;;;29.98;19.48;;;;;;;10.02;77.97;100558.47;5069635;28;20040;-59
2022/12/22 13:21:04;;;;;;;28.63;19.80;;;;;;;9.95;78.23;100560.59;5069875;28;20044;-59
2022/12/22 13:23:35;;;;;;;29.02;19.92;;;;;;;9.97;78.54;100546.44;5069581;28;20025;-59
2022/12/22 13:26:12;;;;;;;28.35;20.38;;;;;;;10.00;78.40;100563.41;5084205;28;20037;-59
2022/12/22 13:28:41;;;;;;;28.60;20.08;;;;;;;9.98;78.46;100562.84;5087962;28;20028;-59
2022/12/22 13:31:19;;;;;;;23.77;18.45;;;;;;;10.00;78.03;100563.41;5089219;28;20024;-60
2022/12/22 13:33:47;;;;;;;25.88;17.02;;;;;;;9.97;77.63;100555.59;5090169;28;20020;-59
2022/12/22 13:36:23;;;;;;;20.75;14.27;;;;;;;9.94;76.95;100563.59;5089118;28;20075;-59
2022/12/22 13:39:01;;;;;;;17.42;13.95;;;;;;;9.89;76.59;100555.22;5089748;28;20047;-59
2022/12/22 13:41:28;;;;;;;15.93;12.65;;;;;;;9.87;76.83;100544.41;5086764;28;20058;-59
2022/12/22 13:44:00;;;;;;;22.33;14.75;;;;;;;9.89;77.10;100535.81;5073363;28;20082;-59
2022/12/22 13:46:26;;;;;;;21.27;14.07;;;;;;;9.90;77.00;100524.44;5069675;28;20521;-59
2022/12/22 13:48:55;;;;;;;17.85;14.57;;;;;;;9.92;76.89;100538.91;5069452;28;20440;-59
2022/12/22 13:51:25;;;;;;;18.15;13.70;;;;;;;9.86;76.10;100528.84;5069238;28;20048;-59
2022/12/22 13:53:55;;;;;;;18.27;13.30;;;;;;;9.88;76.93;100534.97;5069493;28;20036;-59
2022/12/22 13:56:24;;;;;;;17.35;12.80;;;;;;;9.90;77.04;100530.00;5069459;28;20439;-59
2022/12/22 13:59:00;;;;;;;17.50;12.55;;;;;;;9.95;77.18;100523.72;5087144;28;20035;-59
2022/12/22 14:01:26;;;;;;;17.25;12.80;;;;;;;9.95;76.56;100523.72;5086400;28;20031;-60
2022/12/22 14:04:01;;;;;;;15.48;12.38;;;;;;;9.94;76.79;100511.78;5089472;28;20217;-59
2022/12/22 14:06:38;;;;;;;16.35;13.18;;;;;;;9.94;77.05;100514.56;5089604;28;20031;-59
2022/12/22 14:09:19;;;;;;;17.33;12.63;;;;;;;9.94;77.10;100514.56;5089271;28;20040;-59
2022/12/22 14:11:48;;;;;;;16.88;12.70;;;;;;;9.92;77.40;100513.13;5087217;28;20153;-58
2022/12/22 14:14:19;;;;;;;17.05;13.85;;;;;;;9.94;76.62;100517.31;5088363;28;20604;-59
2022/12/22 14:16:47;;;;;;;17.45;12.93;;;;;;;9.93;76.57;100510.09;5087243;28;20475;-58
2022/12/22 14:19:14;;;;;;;16.42;12.48;;;;;;;9.93;76.96;100510.09;5085509;28;20364;-60
2022/12/22 14:21:44;;;;;;;16.15;12.43;;;;;;;9.93;77.20;100510.09;5089869;28;20242;-60
2022/12/22 14:24:18;;;;;;;17.60;12.07;;;;;;;9.88;77.52;100501.72;5088845;28;20444;-60
2022/12/22 14:26:44;;;;;;;14.18;11.20;;;;;;;9.86;77.40;100481.72;5088289;28;20132;-60
2022/12/22 14:29:14;;;;;;;16.90;11.85;;;;;;;9.83;77.46;100494.16;5088819;28;20040;-60
2022/12/22 14:32:30;;;;;;;14.23;11.45;;;;;;;9.90;78.08;100480.09;5092618;28;20032;-60
2022/12/22 14:34:56;;;;;;;16.85;10.77;;;;;;;9.87;77.62;100480.63;5061940;28;20040;-60
2022/12/22 14:37:26;;;;;;;15.88;11.85;;;;;;;9.83;77.67;100482.25;5091904;28;20031;-60
2022/12/22 14:39:55;;;;;;;14.57;11.48;;;;;;;9.77;78.21;100481.31;5080525;28;20066;-60
2022/12/22 14:42:20;;;;;;;15.73;11.13;;;;;;;9.79;78.71;100468.06;5086782;28;20081;-60
2022/12/22 14:44:47;;;;;;;14.35;11.32;;;;;;;9.77;78.46;100470.25;5092672;28;20024;-60
2022/12/22 14:47:18;;;;;;;14.65;10.70;;;;;;;9.72;78.73;100472.13;5086212;28;20119;-60
2022/12/22 14:49:54;;;;;;;14.13;10.30;;;;;;;9.84;79.66;100461.75;5089918;28;20546;-60
2022/12/22 14:52:31;;;;;;;13.00;10.20;;;;;;;9.91;79.02;100462.38;5093222;28;20074;-61
2022/12/22 14:54:57;;;;;;;15.32;10.23;;;;;;;9.86;78.95;100467.84;5087880;28;20036;-61
2022/12/22 14:57:33;;;;;;;13.48;9.70;;;;;;;9.83;79.23;100468.38;5086531;28;20379;-61
2022/12/22 15:00:20;;;;;;;15.27;10.70;;;;;;;9.83;79.68;100465.63;5089186;28;21137;-61
2022/12/22 15:02:52;;;;;;;16.83;10.18;;;;;;;9.78;79.92;100455.28;5087194;28;20175;-61
2022/12/22 15:05:37;;;;;;;12.43;9.88;;;;;;;9.76;80.19;100451.94;5072701;28;20020;-61
2022/12/22 15:08:08;;;;;;;13.18;10.40;;;;;;;9.70;80.24;100455.72;5071399;28;20025;-61
2022/12/22 15:10:40;;;;;;;14.50;9.73;;;;;;;9.67;80.40;100456.25;5091689;28;20070;-60